sensor_id;sensor_type;location;lat;lon;timestamp;temperature;humidity
1083;DHT22;530;51.448;7.238;2022-09-09T00:02:22;16.40;99.90
1083;DHT22;530;51.448;7.238;2022-09-09T00:04:58;16.40;99.90
1083;DHT22;530;51.448;7.238;2022-09-09T00:07:50;16.40;99.90
1083;DHT22;530;51.448;7.238;2022-09-09T00:10:39;16.30;99.90
1083;DHT22;530;51.448;7.238;2022-09-09T00:13:19;16.30;99.90
1083;DHT22;530;51.448;7.238;2022-09-09T00:16:22;16.30;99.90
1083;DHT22;530;51.448;7.238;2022-09-09T00:22:16;16.20;99.90
1083;DHT22;530;51.448;7.238;2022-09-09T00:27:34;16.20;99.90
1083;DHT22;530;51.448;7.238;2022-09-09T00:30:24;16.20;99.90
1083;DHT22;530;51.448;7.238;2022-09-09T00:32:54;16.20;99.90
1083;DHT22;530;51.448;7.238;2022-09-09T00:35:34;16.10;99.90
1083;DHT22;530;51.448;7.238;2022-09-09T00:38:08;16.10;99.90
1083;DHT22;530;51.448;7.238;2022-09-09T00:43:26;16.10;99.90
1083;DHT22;530;51.448;7.238;2022-09-09T00:54:26;15.90;99.90
1083;DHT22;530;51.448;7.238;2022-09-09T00:59:47;15.90;99.90
1083;DHT22;530;51.448;7.238;2022-09-09T01:08:00;15.90;99.90
1083;DHT22;530;51.448;7.238;2022-09-09T01:10:41;15.80;99.90
1083;DHT22;530;51.448;7.238;2022-09-09T01:13:26;15.70;99.90
1083;DHT22;530;51.448;7.238;2022-09-09T01:15:57;15.80;99.90
1083;DHT22;530;51.448;7.238;2022-09-09T01:18:29;15.80;99.90
1083;DHT22;530;51.448;7.238;2022-09-09T01:24:26;15.80;99.90
1083;DHT22;530;51.448;7.238;2022-09-09T01:26:56;15.70;99.90
1083;DHT22;530;51.448;7.238;2022-09-09T01:29:24;15.70;99.90
1083;DHT22;530;51.448;7.238;2022-09-09T01:34:23;15.70;99.90
1083;DHT22;530;51.448;7.238;2022-09-09T01:37:10;15.70;99.90
1083;DHT22;530;51.448;7.238;2022-09-09T01:39:39;15.70;99.90
1083;DHT22;530;51.448;7.238;2022-09-09T01:42:08;15.70;99.90
1083;DHT22;530;51.448;7.238;2022-09-09T01:44:35;15.70;99.90
1083;DHT22;530;51.448;7.238;2022-09-09T01:47:02;15.60;99.90
1083;DHT22;530;51.448;7.238;2022-09-09T01:49:28;15.70;99.90
1083;DHT22;530;51.448;7.238;2022-09-09T01:51:55;15.70;99.90
1083;DHT22;530;51.448;7.238;2022-09-09T01:54:24;15.70;99.90
1083;DHT22;530;51.448;7.238;2022-09-09T01:57:15;15.80;99.90
1083;DHT22;530;51.448;7.238;2022-09-09T02:00:08;15.90;99.90
1083;DHT22;530;51.448;7.238;2022-09-09T02:08:05;16.00;99.90
1083;DHT22;530;51.448;7.238;2022-09-09T02:10:47;16.00;99.90
1083;DHT22;530;51.448;7.238;2022-09-09T02:13:18;16.00;99.90
1083;DHT22;530;51.448;7.238;2022-09-09T02:15:52;16.00;99.90
1083;DHT22;530;51.448;7.238;2022-09-09T02:18:35;16.00;99.90
1083;DHT22;530;51.448;7.238;2022-09-09T02:21:02;16.10;99.90
1083;DHT22;530;51.448;7.238;2022-09-09T02:23:28;16.00;99.90
1083;DHT22;530;51.448;7.238;2022-09-09T02:25:56;16.00;99.90
1083;DHT22;530;51.448;7.238;2022-09-09T02:28:24;16.00;99.90
1083;DHT22;530;51.448;7.238;2022-09-09T02:30:51;16.00;99.90
1083;DHT22;530;51.448;7.238;2022-09-09T02:33:25;16.00;99.90
1083;DHT22;530;51.448;7.238;2022-09-09T02:35:53;16.00;99.90
1083;DHT22;530;51.448;7.238;2022-09-09T02:38:21;16.00;99.90
1083;DHT22;530;51.448;7.238;2022-09-09T02:40:47;16.00;99.90
1083;DHT22;530;51.448;7.238;2022-09-09T02:43:14;16.10;99.90
1083;DHT22;530;51.448;7.238;2022-09-09T02:45:53;16.10;99.90
1083;DHT22;530;51.448;7.238;2022-09-09T02:48:31;16.10;99.90
1083;DHT22;530;51.448;7.238;2022-09-09T02:51:22;16.10;99.90
1083;DHT22;530;51.448;7.238;2022-09-09T02:56:27;16.00;99.90
1083;DHT22;530;51.448;7.238;2022-09-09T02:58:55;16.00;99.90
1083;DHT22;530;51.448;7.238;2022-09-09T03:01:21;16.00;99.90
1083;DHT22;530;51.448;7.238;2022-09-09T03:03:47;16.00;99.90
1083;DHT22;530;51.448;7.238;2022-09-09T03:06:13;16.00;99.90
1083;DHT22;530;51.448;7.238;2022-09-09T03:08:40;16.00;99.90
1083;DHT22;530;51.448;7.238;2022-09-09T03:11:05;16.00;99.90
1083;DHT22;530;51.448;7.238;2022-09-09T03:13:31;16.00;99.90
1083;DHT22;530;51.448;7.238;2022-09-09T03:15:57;16.10;99.90
1083;DHT22;530;51.448;7.238;2022-09-09T03:18:22;16.10;99.90
1083;DHT22;530;51.448;7.238;2022-09-09T03:20:48;16.10;99.90
1083;DHT22;530;51.448;7.238;2022-09-09T03:23:17;16.10;99.90
1083;DHT22;530;51.448;7.238;2022-09-09T03:25:52;16.10;99.90
1083;DHT22;530;51.448;7.238;2022-09-09T03:28:19;16.10;99.90
1083;DHT22;530;51.448;7.238;2022-09-09T03:30:45;16.10;99.90
1083;DHT22;530;51.448;7.238;2022-09-09T03:33:11;16.00;99.90
1083;DHT22;530;51.448;7.238;2022-09-09T03:35:38;16.00;99.90
1083;DHT22;530;51.448;7.238;2022-09-09T03:38:04;16.10;99.90
1083;DHT22;530;51.448;7.238;2022-09-09T03:40:30;16.00;99.90
1083;DHT22;530;51.448;7.238;2022-09-09T03:42:56;16.10;99.90
1083;DHT22;530;51.448;7.238;2022-09-09T03:45:21;16.10;99.90
1083;DHT22;530;51.448;7.238;2022-09-09T03:47:47;16.00;99.90
1083;DHT22;530;51.448;7.238;2022-09-09T03:50:13;16.00;99.90
1083;DHT22;530;51.448;7.238;2022-09-09T03:52:40;16.00;99.90
1083;DHT22;530;51.448;7.238;2022-09-09T03:55:07;15.90;99.90
1083;DHT22;530;51.448;7.238;2022-09-09T03:57:34;15.90;99.90
1083;DHT22;530;51.448;7.238;2022-09-09T04:00:05;15.90;99.90
1083;DHT22;530;51.448;7.238;2022-09-09T04:02:32;15.90;99.90
1083;DHT22;530;51.448;7.238;2022-09-09T04:04:57;15.90;99.90
1083;DHT22;530;51.448;7.238;2022-09-09T04:07:23;15.90;99.90
1083;DHT22;530;51.448;7.238;2022-09-09T04:09:49;16.00;99.90
1083;DHT22;530;51.448;7.238;2022-09-09T04:12:14;16.00;99.90
1083;DHT22;530;51.448;7.238;2022-09-09T04:14:41;16.00;99.90
1083;DHT22;530;51.448;7.238;2022-09-09T04:17:07;16.00;99.90
1083;DHT22;530;51.448;7.238;2022-09-09T04:19:33;16.00;99.90
1083;DHT22;530;51.448;7.238;2022-09-09T04:21:59;16.00;99.90
1083;DHT22;530;51.448;7.238;2022-09-09T04:24:24;16.00;99.90
1083;DHT22;530;51.448;7.238;2022-09-09T04:26:52;16.00;99.90
1083;DHT22;530;51.448;7.238;2022-09-09T04:29:18;15.90;99.90
1083;DHT22;530;51.448;7.238;2022-09-09T04:31:44;16.00;99.90
1083;DHT22;530;51.448;7.238;2022-09-09T04:34:10;15.90;99.90
1083;DHT22;530;51.448;7.238;2022-09-09T04:36:35;16.00;99.90
1083;DHT22;530;51.448;7.238;2022-09-09T04:39:02;16.00;99.90
1083;DHT22;530;51.448;7.238;2022-09-09T04:41:28;16.00;99.90
1083;DHT22;530;51.448;7.238;2022-09-09T04:43:54;16.10;99.90
1083;DHT22;530;51.448;7.238;2022-09-09T04:46:21;16.10;99.90
1083;DHT22;530;51.448;7.238;2022-09-09T04:48:48;16.10;99.90
1083;DHT22;530;51.448;7.238;2022-09-09T04:51:15;16.10;99.90
1083;DHT22;530;51.448;7.238;2022-09-09T04:53:41;15.90;99.90
1083;DHT22;530;51.448;7.238;2022-09-09T04:56:12;15.80;99.90
1083;DHT22;530;51.448;7.238;2022-09-09T04:58:39;15.80;99.90
1083;DHT22;530;51.448;7.238;2022-09-09T05:01:07;15.70;99.90
1083;DHT22;530;51.448;7.238;2022-09-09T05:03:33;15.70;99.90
1083;DHT22;530;51.448;7.238;2022-09-09T05:06:06;15.80;99.90
1083;DHT22;530;51.448;7.238;2022-09-09T05:08:34;15.80;99.90
1083;DHT22;530;51.448;7.238;2022-09-09T05:11:00;15.80;99.90
1083;DHT22;530;51.448;7.238;2022-09-09T05:13:28;15.80;99.90
1083;DHT22;530;51.448;7.238;2022-09-09T05:15:56;15.90;99.90
1083;DHT22;530;51.448;7.238;2022-09-09T05:18:22;15.80;99.90
1083;DHT22;530;51.448;7.238;2022-09-09T05:20:48;15.80;99.90
1083;DHT22;530;51.448;7.238;2022-09-09T05:23:14;15.80;99.90
1083;DHT22;530;51.448;7.238;2022-09-09T05:25:40;15.90;99.90
1083;DHT22;530;51.448;7.238;2022-09-09T05:28:06;15.90;99.90
1083;DHT22;530;51.448;7.238;2022-09-09T05:30:33;15.90;99.90
1083;DHT22;530;51.448;7.238;2022-09-09T05:32:59;15.90;99.90
1083;DHT22;530;51.448;7.238;2022-09-09T05:35:25;15.90;99.90
1083;DHT22;530;51.448;7.238;2022-09-09T05:37:51;15.90;99.90
1083;DHT22;530;51.448;7.238;2022-09-09T05:40:16;15.90;99.90
1083;DHT22;530;51.448;7.238;2022-09-09T05:42:42;15.90;99.90
1083;DHT22;530;51.448;7.238;2022-09-09T05:45:08;15.90;99.90
1083;DHT22;530;51.448;7.238;2022-09-09T05:47:35;15.90;99.90
1083;DHT22;530;51.448;7.238;2022-09-09T05:50:01;15.90;99.90
1083;DHT22;530;51.448;7.238;2022-09-09T05:52:27;15.90;99.90
1083;DHT22;530;51.448;7.238;2022-09-09T05:54:54;15.90;99.90
1083;DHT22;530;51.448;7.238;2022-09-09T05:57:21;15.90;99.90
1083;DHT22;530;51.448;7.238;2022-09-09T05:59:47;16.00;99.90
1083;DHT22;530;51.448;7.238;2022-09-09T06:02:13;16.00;99.90
1083;DHT22;530;51.448;7.238;2022-09-09T06:04:38;16.00;99.90
1083;DHT22;530;51.448;7.238;2022-09-09T06:07:05;16.10;99.90
1083;DHT22;530;51.448;7.238;2022-09-09T06:09:31;16.10;99.90
1083;DHT22;530;51.448;7.238;2022-09-09T06:11:57;16.20;99.90
1083;DHT22;530;51.448;7.238;2022-09-09T06:14:23;16.20;99.90
1083;DHT22;530;51.448;7.238;2022-09-09T06:16:51;16.30;99.90
1083;DHT22;530;51.448;7.238;2022-09-09T06:19:17;16.30;99.90
1083;DHT22;530;51.448;7.238;2022-09-09T06:21:43;16.30;99.90
1083;DHT22;530;51.448;7.238;2022-09-09T06:24:10;16.40;99.90
1083;DHT22;530;51.448;7.238;2022-09-09T06:26:39;16.40;99.90
1083;DHT22;530;51.448;7.238;2022-09-09T06:29:08;16.40;99.90
1083;DHT22;530;51.448;7.238;2022-09-09T06:31:35;16.50;99.90
1083;DHT22;530;51.448;7.238;2022-09-09T06:34:04;16.50;99.90
1083;DHT22;530;51.448;7.238;2022-09-09T06:36:36;16.60;99.90
1083;DHT22;530;51.448;7.238;2022-09-09T06:39:02;16.60;99.90
1083;DHT22;530;51.448;7.238;2022-09-09T06:41:30;16.60;99.90
1083;DHT22;530;51.448;7.238;2022-09-09T06:43:56;16.70;99.90
1083;DHT22;530;51.448;7.238;2022-09-09T06:46:24;16.70;99.90
1083;DHT22;530;51.448;7.238;2022-09-09T06:48:53;16.80;99.90
1083;DHT22;530;51.448;7.238;2022-09-09T06:51:30;16.80;99.90
1083;DHT22;530;51.448;7.238;2022-09-09T06:53:58;16.90;99.90
1083;DHT22;530;51.448;7.238;2022-09-09T06:56:30;16.90;99.90
1083;DHT22;530;51.448;7.238;2022-09-09T06:58:58;16.90;99.90
1083;DHT22;530;51.448;7.238;2022-09-09T07:01:26;17.00;99.90
1083;DHT22;530;51.448;7.238;2022-09-09T07:03:54;17.00;99.90
1083;DHT22;530;51.448;7.238;2022-09-09T07:06:25;17.00;99.90
1083;DHT22;530;51.448;7.238;2022-09-09T07:08:53;17.00;99.90
1083;DHT22;530;51.448;7.238;2022-09-09T07:11:21;17.10;99.90
1083;DHT22;530;51.448;7.238;2022-09-09T07:13:48;17.10;99.90
1083;DHT22;530;51.448;7.238;2022-09-09T07:16:18;17.20;99.90
1083;DHT22;530;51.448;7.238;2022-09-09T07:18:44;17.30;99.90
1083;DHT22;530;51.448;7.238;2022-09-09T07:21:11;17.40;99.90
1083;DHT22;530;51.448;7.238;2022-09-09T07:23:38;17.40;99.90
1083;DHT22;530;51.448;7.238;2022-09-09T07:26:12;17.40;99.90
1083;DHT22;530;51.448;7.238;2022-09-09T07:28:39;17.40;99.90
1083;DHT22;530;51.448;7.238;2022-09-09T07:31:06;17.50;99.90
1083;DHT22;530;51.448;7.238;2022-09-09T07:33:34;17.40;99.90
1083;DHT22;530;51.448;7.238;2022-09-09T07:36:08;17.40;99.90
1083;DHT22;530;51.448;7.238;2022-09-09T07:38:42;17.50;99.90
1083;DHT22;530;51.448;7.238;2022-09-09T07:41:11;17.60;99.90
1083;DHT22;530;51.448;7.238;2022-09-09T07:43:45;17.80;99.90
1083;DHT22;530;51.448;7.238;2022-09-09T07:46:12;17.90;99.90
1083;DHT22;530;51.448;7.238;2022-09-09T07:48:43;18.00;99.90
1083;DHT22;530;51.448;7.238;2022-09-09T07:51:11;18.00;99.90
1083;DHT22;530;51.448;7.238;2022-09-09T07:53:38;18.00;99.90
1083;DHT22;530;51.448;7.238;2022-09-09T07:56:07;18.00;99.90
1083;DHT22;530;51.448;7.238;2022-09-09T07:58:36;18.10;99.90
1083;DHT22;530;51.448;7.238;2022-09-09T08:01:07;18.10;99.90
1083;DHT22;530;51.448;7.238;2022-09-09T08:03:33;18.20;99.90
1083;DHT22;530;51.448;7.238;2022-09-09T08:06:04;18.20;99.90
1083;DHT22;530;51.448;7.238;2022-09-09T08:08:31;18.20;99.90
1083;DHT22;530;51.448;7.238;2022-09-09T08:11:05;18.20;99.90
1083;DHT22;530;51.448;7.238;2022-09-09T08:13:34;18.20;99.90
1083;DHT22;530;51.448;7.238;2022-09-09T08:16:13;18.20;99.90
1083;DHT22;530;51.448;7.238;2022-09-09T08:18:39;18.20;99.90
1083;DHT22;530;51.448;7.238;2022-09-09T08:21:06;18.20;99.90
1083;DHT22;530;51.448;7.238;2022-09-09T08:23:33;18.20;99.90
1083;DHT22;530;51.448;7.238;2022-09-09T08:26:08;18.30;99.90
1083;DHT22;530;51.448;7.238;2022-09-09T08:28:35;18.40;99.90
1083;DHT22;530;51.448;7.238;2022-09-09T08:31:15;18.60;99.90
1083;DHT22;530;51.448;7.238;2022-09-09T08:33:43;18.70;99.90
1083;DHT22;530;51.448;7.238;2022-09-09T08:36:12;18.80;99.90
1083;DHT22;530;51.448;7.238;2022-09-09T08:38:41;18.80;99.90
1083;DHT22;530;51.448;7.238;2022-09-09T08:43:45;18.90;99.90
1083;DHT22;530;51.448;7.238;2022-09-09T08:51:13;18.90;99.90
1083;DHT22;530;51.448;7.238;2022-09-09T08:53:45;19.00;99.90
1083;DHT22;530;51.448;7.238;2022-09-09T08:56:20;19.10;99.90
1083;DHT22;530;51.448;7.238;2022-09-09T08:58:51;19.20;99.90
1083;DHT22;530;51.448;7.238;2022-09-09T09:09:40;19.50;99.90
1083;DHT22;530;51.448;7.238;2022-09-09T09:12:17;19.60;99.90
1083;DHT22;530;51.448;7.238;2022-09-09T09:14:46;19.70;99.90
1083;DHT22;530;51.448;7.238;2022-09-09T09:17:18;19.80;99.90
1083;DHT22;530;51.448;7.238;2022-09-09T09:19:45;19.70;99.90
1083;DHT22;530;51.448;7.238;2022-09-09T09:22:43;19.70;99.90
1083;DHT22;530;51.448;7.238;2022-09-09T09:25:23;19.70;99.90
1083;DHT22;530;51.448;7.238;2022-09-09T09:28:00;19.60;99.90
1083;DHT22;530;51.448;7.238;2022-09-09T09:30:31;19.50;99.90
1083;DHT22;530;51.448;7.238;2022-09-09T09:33:02;19.50;99.90
1083;DHT22;530;51.448;7.238;2022-09-09T09:35:29;19.50;99.90
1083;DHT22;530;51.448;7.238;2022-09-09T09:37:55;19.50;99.90
1083;DHT22;530;51.448;7.238;2022-09-09T09:40:22;19.50;99.90
1083;DHT22;530;51.448;7.238;2022-09-09T09:42:59;19.50;99.90
1083;DHT22;530;51.448;7.238;2022-09-09T09:45:33;19.60;99.90
1083;DHT22;530;51.448;7.238;2022-09-09T09:48:04;19.60;99.90
1083;DHT22;530;51.448;7.238;2022-09-09T09:50:31;19.60;99.90
1083;DHT22;530;51.448;7.238;2022-09-09T09:53:00;19.60;99.90
1083;DHT22;530;51.448;7.238;2022-09-09T09:55:28;19.70;99.90
1083;DHT22;530;51.448;7.238;2022-09-09T09:58:06;19.80;99.90
1083;DHT22;530;51.448;7.238;2022-09-09T10:00:52;20.00;99.90
1083;DHT22;530;51.448;7.238;2022-09-09T10:03:30;20.00;99.90
1083;DHT22;530;51.448;7.238;2022-09-09T10:05:56;20.00;99.90
1083;DHT22;530;51.448;7.238;2022-09-09T10:08:24;20.00;99.90
1083;DHT22;530;51.448;7.238;2022-09-09T10:11:05;20.00;99.90
1083;DHT22;530;51.448;7.238;2022-09-09T10:13:45;20.00;99.90
1083;DHT22;530;51.448;7.238;2022-09-09T10:19:33;19.80;99.90
1083;DHT22;530;51.448;7.238;2022-09-09T10:22:04;19.80;99.90
1083;DHT22;530;51.448;7.238;2022-09-09T10:27:38;19.70;99.90
1083;DHT22;530;51.448;7.238;2022-09-09T10:33:07;20.00;99.90
1083;DHT22;530;51.448;7.238;2022-09-09T10:35:35;20.20;99.90
1083;DHT22;530;51.448;7.238;2022-09-09T10:38:29;20.50;99.90
1083;DHT22;530;51.448;7.238;2022-09-09T10:57:24;20.80;99.90
1083;DHT22;530;51.448;7.238;2022-09-09T10:59:56;20.90;99.90
1083;DHT22;530;51.448;7.238;2022-09-09T11:02:30;20.90;99.90
1083;DHT22;530;51.448;7.238;2022-09-09T11:05:19;21.00;99.90
1083;DHT22;530;51.448;7.238;2022-09-09T11:18:40;20.80;99.90
1083;DHT22;530;51.448;7.238;2022-09-09T11:21:17;20.80;99.90
1083;DHT22;530;51.448;7.238;2022-09-09T11:23:52;20.80;99.90
1083;DHT22;530;51.448;7.238;2022-09-09T11:26:31;20.80;99.90
1083;DHT22;530;51.448;7.238;2022-09-09T11:37:44;20.80;99.90
1083;DHT22;530;51.448;7.238;2022-09-09T11:40:23;20.70;99.90
1083;DHT22;530;51.448;7.238;2022-09-09T11:42:49;20.60;99.90
1083;DHT22;530;51.448;7.238;2022-09-09T11:45:26;20.60;99.90
1083;DHT22;530;51.448;7.238;2022-09-09T11:47:59;20.60;99.90
1083;DHT22;530;51.448;7.238;2022-09-09T11:52:50;20.80;99.90
1083;DHT22;530;51.448;7.238;2022-09-09T11:55:28;20.80;99.90
1083;DHT22;530;51.448;7.238;2022-09-09T11:58:03;20.70;99.90
1083;DHT22;530;51.448;7.238;2022-09-09T12:00:44;20.70;99.90
1083;DHT22;530;51.448;7.238;2022-09-09T12:06:24;20.50;99.90
1083;DHT22;530;51.448;7.238;2022-09-09T12:08:55;20.40;99.90
1083;DHT22;530;51.448;7.238;2022-09-09T12:11:29;20.40;99.90
1083;DHT22;530;51.448;7.238;2022-09-09T12:13:58;20.40;99.90
1083;DHT22;530;51.448;7.238;2022-09-09T12:16:35;20.30;99.90
1083;DHT22;530;51.448;7.238;2022-09-09T12:19:23;20.30;99.90
1083;DHT22;530;51.448;7.238;2022-09-09T12:25:26;20.10;99.90
1083;DHT22;530;51.448;7.238;2022-09-09T12:27:40;20.00;99.90
1083;DHT22;530;51.448;7.238;2022-09-09T12:30:11;19.90;99.90
1083;DHT22;530;51.448;7.238;2022-09-09T12:32:38;20.00;99.90
1083;DHT22;530;51.448;7.238;2022-09-09T12:37:54;20.20;99.90
1083;DHT22;530;51.448;7.238;2022-09-09T12:42:48;20.20;99.90
1083;DHT22;530;51.448;7.238;2022-09-09T12:45:19;20.20;99.90
1083;DHT22;530;51.448;7.238;2022-09-09T12:50:32;20.00;99.90
1083;DHT22;530;51.448;7.238;2022-09-09T12:53:07;20.00;99.90
1083;DHT22;530;51.448;7.238;2022-09-09T12:55:38;20.00;99.90
1083;DHT22;530;51.448;7.238;2022-09-09T12:58:06;20.00;99.90
1083;DHT22;530;51.448;7.238;2022-09-09T13:00:33;19.80;99.90
1083;DHT22;530;51.448;7.238;2022-09-09T13:03:02;19.80;99.90
1083;DHT22;530;51.448;7.238;2022-09-09T13:05:35;19.70;99.90
1083;DHT22;530;51.448;7.238;2022-09-09T13:08:06;19.70;99.90
1083;DHT22;530;51.448;7.238;2022-09-09T13:10:37;19.80;99.90
1083;DHT22;530;51.448;7.238;2022-09-09T13:13:12;20.00;99.90
1083;DHT22;530;51.448;7.238;2022-09-09T13:15:39;20.20;99.90
1083;DHT22;530;51.448;7.238;2022-09-09T13:18:10;20.20;99.90
1083;DHT22;530;51.448;7.238;2022-09-09T13:20:37;20.20;99.90
1083;DHT22;530;51.448;7.238;2022-09-09T13:23:03;20.20;99.90
1083;DHT22;530;51.448;7.238;2022-09-09T13:25:29;20.10;99.90
1083;DHT22;530;51.448;7.238;2022-09-09T13:28:03;20.10;99.90
1083;DHT22;530;51.448;7.238;2022-09-09T13:30:36;20.20;99.90
1083;DHT22;530;51.448;7.238;2022-09-09T13:38:18;20.20;99.90
1083;DHT22;530;51.448;7.238;2022-09-09T13:41:04;20.20;99.90
1083;DHT22;530;51.448;7.238;2022-09-09T13:43:44;20.20;99.90
1083;DHT22;530;51.448;7.238;2022-09-09T13:46:40;20.10;99.90
1083;DHT22;530;51.448;7.238;2022-09-09T13:51:39;20.00;99.90
1083;DHT22;530;51.448;7.238;2022-09-09T13:54:09;19.90;99.90
1083;DHT22;530;51.448;7.238;2022-09-09T13:56:37;19.80;99.90
1083;DHT22;530;51.448;7.238;2022-09-09T13:59:05;19.70;99.90
1083;DHT22;530;51.448;7.238;2022-09-09T14:01:31;19.50;99.90
1083;DHT22;530;51.448;7.238;2022-09-09T14:04:00;19.40;99.90
1083;DHT22;530;51.448;7.238;2022-09-09T14:06:26;19.40;99.90
1083;DHT22;530;51.448;7.238;2022-09-09T14:08:53;19.30;99.90
1083;DHT22;530;51.448;7.238;2022-09-09T14:11:20;19.30;99.90
1083;DHT22;530;51.448;7.238;2022-09-09T14:13:47;19.30;99.90
1083;DHT22;530;51.448;7.238;2022-09-09T14:16:16;19.40;99.90
1083;DHT22;530;51.448;7.238;2022-09-09T14:18:43;19.50;99.90
1083;DHT22;530;51.448;7.238;2022-09-09T14:21:09;19.60;99.90
1083;DHT22;530;51.448;7.238;2022-09-09T14:23:35;19.70;99.90
1083;DHT22;530;51.448;7.238;2022-09-09T14:26:01;19.80;99.90
1083;DHT22;530;51.448;7.238;2022-09-09T14:28:27;19.90;99.90
1083;DHT22;530;51.448;7.238;2022-09-09T14:30:54;20.00;99.90
1083;DHT22;530;51.448;7.238;2022-09-09T14:33:19;20.00;99.90
1083;DHT22;530;51.448;7.238;2022-09-09T14:35:45;19.80;99.90
1083;DHT22;530;51.448;7.238;2022-09-09T14:38:11;19.80;99.90
1083;DHT22;530;51.448;7.238;2022-09-09T14:40:37;19.80;99.90
1083;DHT22;530;51.448;7.238;2022-09-09T14:43:04;19.70;99.90
1083;DHT22;530;51.448;7.238;2022-09-09T14:45:29;19.70;99.90
1083;DHT22;530;51.448;7.238;2022-09-09T14:47:55;19.60;99.90
1083;DHT22;530;51.448;7.238;2022-09-09T14:50:22;19.60;99.90
1083;DHT22;530;51.448;7.238;2022-09-09T14:52:48;19.60;99.90
1083;DHT22;530;51.448;7.238;2022-09-09T14:55:14;19.60;99.90
1083;DHT22;530;51.448;7.238;2022-09-09T14:57:41;19.60;99.90
1083;DHT22;530;51.448;7.238;2022-09-09T15:00:08;19.60;99.90
1083;DHT22;530;51.448;7.238;2022-09-09T15:02:34;19.60;99.90
1083;DHT22;530;51.448;7.238;2022-09-09T15:05:00;19.70;99.90
1083;DHT22;530;51.448;7.238;2022-09-09T15:07:27;19.80;99.90
1083;DHT22;530;51.448;7.238;2022-09-09T15:09:54;19.70;99.90
1083;DHT22;530;51.448;7.238;2022-09-09T15:12:20;19.70;99.90
1083;DHT22;530;51.448;7.238;2022-09-09T15:14:46;19.70;99.90
1083;DHT22;530;51.448;7.238;2022-09-09T15:17:12;19.60;99.90
1083;DHT22;530;51.448;7.238;2022-09-09T15:19:38;19.50;99.90
1083;DHT22;530;51.448;7.238;2022-09-09T15:22:08;19.40;99.90
1083;DHT22;530;51.448;7.238;2022-09-09T15:24:34;19.30;99.90
1083;DHT22;530;51.448;7.238;2022-09-09T15:27:01;19.10;99.90
1083;DHT22;530;51.448;7.238;2022-09-09T15:29:26;19.00;99.90
1083;DHT22;530;51.448;7.238;2022-09-09T15:31:55;18.80;99.90
1083;DHT22;530;51.448;7.238;2022-09-09T15:34:21;18.70;99.90
1083;DHT22;530;51.448;7.238;2022-09-09T15:36:47;18.60;99.90
1083;DHT22;530;51.448;7.238;2022-09-09T15:39:17;18.50;99.90
1083;DHT22;530;51.448;7.238;2022-09-09T15:41:47;18.40;99.90
1083;DHT22;530;51.448;7.238;2022-09-09T15:44:13;18.40;99.90
1083;DHT22;530;51.448;7.238;2022-09-09T15:46:44;18.20;99.90
1083;DHT22;530;51.448;7.238;2022-09-09T15:49:25;18.10;99.90
1083;DHT22;530;51.448;7.238;2022-09-09T15:51:53;18.00;99.90
1083;DHT22;530;51.448;7.238;2022-09-09T15:54:20;17.90;99.90
1083;DHT22;530;51.448;7.238;2022-09-09T15:57:00;17.80;99.90
1083;DHT22;530;51.448;7.238;2022-09-09T15:59:27;17.80;99.90
1083;DHT22;530;51.448;7.238;2022-09-09T16:01:54;17.60;99.90
1083;DHT22;530;51.448;7.238;2022-09-09T16:04:22;17.50;99.90
1083;DHT22;530;51.448;7.238;2022-09-09T16:06:55;17.50;99.90
1083;DHT22;530;51.448;7.238;2022-09-09T16:09:22;17.50;99.90
1083;DHT22;530;51.448;7.238;2022-09-09T16:11:48;17.50;99.90
1083;DHT22;530;51.448;7.238;2022-09-09T16:14:15;17.40;99.90
1083;DHT22;530;51.448;7.238;2022-09-09T16:16:41;17.40;99.90
1083;DHT22;530;51.448;7.238;2022-09-09T16:19:10;17.40;99.90
1083;DHT22;530;51.448;7.238;2022-09-09T16:21:40;17.40;99.90
1083;DHT22;530;51.448;7.238;2022-09-09T16:24:07;17.30;99.90
1083;DHT22;530;51.448;7.238;2022-09-09T16:26:35;17.30;99.90
1083;DHT22;530;51.448;7.238;2022-09-09T16:29:01;17.20;99.90
1083;DHT22;530;51.448;7.238;2022-09-09T16:31:28;17.30;99.90
1083;DHT22;530;51.448;7.238;2022-09-09T16:33:54;17.30;99.90
1083;DHT22;530;51.448;7.238;2022-09-09T16:36:22;17.30;99.90
1083;DHT22;530;51.448;7.238;2022-09-09T16:38:55;17.20;99.90
1083;DHT22;530;51.448;7.238;2022-09-09T16:41:23;17.20;99.90
1083;DHT22;530;51.448;7.238;2022-09-09T16:43:56;17.20;99.90
1083;DHT22;530;51.448;7.238;2022-09-09T16:46:22;17.20;99.90
1083;DHT22;530;51.448;7.238;2022-09-09T16:48:50;17.10;99.90
1083;DHT22;530;51.448;7.238;2022-09-09T16:51:25;17.00;99.90
1083;DHT22;530;51.448;7.238;2022-09-09T16:53:52;17.00;99.90
1083;DHT22;530;51.448;7.238;2022-09-09T16:56:23;17.00;99.90
1083;DHT22;530;51.448;7.238;2022-09-09T16:58:53;17.00;99.90
1083;DHT22;530;51.448;7.238;2022-09-09T17:01:21;17.00;99.90
1083;DHT22;530;51.448;7.238;2022-09-09T17:03:47;17.00;99.90
1083;DHT22;530;51.448;7.238;2022-09-09T17:06:17;17.00;99.90
1083;DHT22;530;51.448;7.238;2022-09-09T17:08:43;17.00;99.90
1083;DHT22;530;51.448;7.238;2022-09-09T17:11:16;17.10;99.90
1083;DHT22;530;51.448;7.238;2022-09-09T17:13:44;17.10;99.90
1083;DHT22;530;51.448;7.238;2022-09-09T17:16:11;17.00;99.90
1083;DHT22;530;51.448;7.238;2022-09-09T17:18:38;17.10;99.90
1083;DHT22;530;51.448;7.238;2022-09-09T17:21:12;17.10;99.90
1083;DHT22;530;51.448;7.238;2022-09-09T17:23:40;17.10;99.90
1083;DHT22;530;51.448;7.238;2022-09-09T17:26:07;17.10;99.90
1083;DHT22;530;51.448;7.238;2022-09-09T17:28:37;17.10;99.90
1083;DHT22;530;51.448;7.238;2022-09-09T17:31:05;17.10;99.90
1083;DHT22;530;51.448;7.238;2022-09-09T17:33:37;17.10;99.90
1083;DHT22;530;51.448;7.238;2022-09-09T17:36:10;17.10;99.90
1083;DHT22;530;51.448;7.238;2022-09-09T17:38:37;17.00;99.90
1083;DHT22;530;51.448;7.238;2022-09-09T17:41:04;17.00;99.90
1083;DHT22;530;51.448;7.238;2022-09-09T17:43:30;17.00;99.90
1083;DHT22;530;51.448;7.238;2022-09-09T17:46:08;17.00;99.90
1083;DHT22;530;51.448;7.238;2022-09-09T17:48:35;17.00;99.90
1083;DHT22;530;51.448;7.238;2022-09-09T17:51:03;17.10;99.90
1083;DHT22;530;51.448;7.238;2022-09-09T17:53:30;17.10;99.90
1083;DHT22;530;51.448;7.238;2022-09-09T17:56:05;17.00;99.90
1083;DHT22;530;51.448;7.238;2022-09-09T17:58:32;17.10;99.90
1083;DHT22;530;51.448;7.238;2022-09-09T18:01:30;17.10;99.90
1083;DHT22;530;51.448;7.238;2022-09-09T18:03:59;17.10;99.90
1083;DHT22;530;51.448;7.238;2022-09-09T18:06:31;17.10;99.90
1083;DHT22;530;51.448;7.238;2022-09-09T18:09:04;17.10;99.90
1083;DHT22;530;51.448;7.238;2022-09-09T18:11:35;17.10;99.90
1083;DHT22;530;51.448;7.238;2022-09-09T18:14:04;17.10;99.90
1083;DHT22;530;51.448;7.238;2022-09-09T18:16:32;17.10;99.90
1083;DHT22;530;51.448;7.238;2022-09-09T18:19:00;17.10;99.90
1083;DHT22;530;51.448;7.238;2022-09-09T18:21:29;17.00;99.90
1083;DHT22;530;51.448;7.238;2022-09-09T18:23:59;17.00;99.90
1083;DHT22;530;51.448;7.238;2022-09-09T18:26:25;17.00;99.90
1083;DHT22;530;51.448;7.238;2022-09-09T18:28:57;17.00;99.90
1083;DHT22;530;51.448;7.238;2022-09-09T18:31:25;16.90;99.90
1083;DHT22;530;51.448;7.238;2022-09-09T18:33:55;17.00;99.90
1083;DHT22;530;51.448;7.238;2022-09-09T18:36:27;17.00;99.90
1083;DHT22;530;51.448;7.238;2022-09-09T18:38:53;17.00;99.90
1083;DHT22;530;51.448;7.238;2022-09-09T18:41:28;17.10;99.90